createdAt,value
2023-02-09T00:00:20.659Z,0.57
2023-02-09T00:02:49.788Z,0.73
2023-02-09T00:05:20.852Z,0.50
2023-02-09T00:07:51.750Z,2.15
2023-02-09T00:10:20.949Z,2.10
2023-02-09T00:13:07.163Z,0.50
2023-02-09T00:15:37.520Z,1.40
2023-02-09T00:18:06.581Z,0.50
2023-02-09T00:20:35.726Z,1.60
2023-02-09T00:23:06.207Z,1.45
2023-02-09T00:25:36.956Z,2.50
2023-02-09T00:28:06.731Z,3.60
2023-02-09T00:30:36.373Z,2.50
2023-02-09T00:33:06.194Z,0.30
2023-02-09T00:35:36.013Z,0.40
2023-02-09T00:38:06.398Z,0.47
2023-02-09T00:40:35.543Z,0.17
2023-02-09T00:43:04.560Z,0.20
2023-02-09T00:45:34.969Z,0.30
2023-02-09T00:48:04.745Z,1.08
2023-02-09T00:50:33.883Z,0.73
2023-02-09T00:53:02.873Z,0.75
2023-02-09T00:55:33.515Z,0.70
2023-02-09T00:58:02.737Z,0.52
2023-02-09T01:00:31.724Z,1.15
2023-02-09T01:03:00.719Z,0.30
2023-02-09T01:05:30.263Z,2.25
2023-02-09T01:07:59.233Z,0.93
2023-02-09T01:10:28.130Z,1.67
2023-02-09T01:12:58.481Z,0.90
2023-02-09T01:18:00.111Z,0.32
2023-02-09T01:20:29.697Z,0.20
2023-02-09T01:22:58.718Z,1.23
2023-02-09T01:25:27.809Z,1.30
2023-02-09T01:27:58.316Z,0.50
2023-02-09T01:30:27.892Z,1.67
2023-02-09T01:32:57.483Z,0.20
2023-02-09T01:35:26.898Z,0.20
2023-02-09T01:37:55.876Z,0.60
2023-02-09T01:40:24.986Z,0.63
2023-02-09T01:42:53.897Z,0.93
2023-02-09T01:45:31.311Z,0.40
2023-02-09T01:48:03.733Z,0.35
2023-02-09T01:50:36.790Z,1.42
2023-02-09T01:53:05.929Z,0.75
2023-02-09T01:55:39.101Z,1.15
2023-02-09T01:58:13.562Z,0.63
2023-02-09T02:00:45.486Z,0.20
2023-02-09T02:03:18.872Z,1.23
2023-02-09T02:05:53.165Z,0.20
2023-02-09T02:08:28.982Z,0.20
2023-02-09T02:10:59.340Z,0.30
2023-02-09T02:13:28.790Z,0.45
2023-02-09T02:16:05.429Z,0.30
2023-02-09T02:19:01.870Z,0.82
2023-02-09T02:22:18.899Z,0.20
2023-02-09T02:25:22.603Z,0.30
2023-02-09T02:28:07.303Z,0.20
2023-02-09T02:30:45.238Z,1.85
2023-02-09T02:33:26.301Z,0.30
2023-02-09T02:36:00.137Z,0.22
2023-02-09T02:38:36.978Z,0.47
2023-02-09T02:41:15.419Z,0.20
2023-02-09T02:43:56.014Z,0.30
2023-02-09T02:46:31.564Z,0.20
2023-02-09T02:49:06.975Z,0.20
2023-02-09T02:51:40.472Z,1.05
2023-02-09T02:54:15.038Z,0.95
2023-02-09T02:56:49.313Z,1.10
2023-02-09T02:59:22.559Z,0.20
2023-02-09T03:01:57.513Z,1.58
2023-02-09T03:04:32.073Z,0.30
2023-02-09T03:07:02.235Z,0.13
2023-02-09T03:09:31.365Z,1.52
2023-02-09T03:12:14.490Z,0.30
2023-02-09T03:14:48.480Z,0.20
2023-02-09T03:17:28.744Z,0.30
2023-02-09T03:20:07.265Z,0.63
2023-02-09T03:22:39.283Z,1.00
2023-02-09T03:25:14.073Z,0.20
2023-02-09T03:27:46.945Z,0.40
2023-02-09T03:30:19.043Z,0.20
2023-02-09T03:32:49.458Z,1.08
2023-02-09T03:35:22.025Z,0.28
2023-02-09T03:37:51.781Z,0.30
2023-02-09T03:40:21.581Z,0.30
2023-02-09T03:42:51.741Z,0.68
2023-02-09T03:45:20.898Z,0.60
2023-02-09T03:47:50.141Z,1.02
2023-02-09T03:50:21.065Z,1.50
2023-02-09T03:52:50.978Z,0.30
2023-02-09T03:55:21.979Z,0.40
2023-02-09T03:57:51.304Z,0.35
2023-02-09T04:00:21.131Z,0.20
2023-02-09T04:02:51.054Z,0.40
2023-02-09T04:05:23.264Z,0.30
2023-02-09T04:07:52.767Z,0.68
2023-02-09T04:10:22.087Z,0.35
2023-02-09T04:12:51.909Z,0.52
2023-02-09T04:15:21.170Z,2.42
2023-02-09T04:17:51.566Z,0.68
2023-02-09T04:20:23.298Z,0.30
2023-02-09T04:22:52.658Z,1.85
2023-02-09T04:25:21.864Z,1.40
2023-02-09T04:27:51.220Z,0.63
2023-02-09T04:30:21.617Z,1.25
2023-02-09T04:32:50.815Z,0.43
2023-02-09T04:35:20.081Z,0.20
2023-02-09T04:37:51.191Z,0.40
2023-02-09T04:40:21.408Z,0.43
2023-02-09T04:42:50.752Z,0.32
2023-02-09T04:45:21.711Z,0.90
2023-02-09T04:47:50.931Z,2.05
2023-02-09T04:50:20.562Z,0.30
2023-02-09T04:52:51.876Z,0.70
2023-02-09T04:55:21.102Z,1.02
2023-02-09T04:58:07.868Z,1.45
2023-02-09T05:00:37.639Z,0.73
2023-02-09T05:03:07.470Z,2.80
2023-02-09T05:05:40.287Z,0.85
2023-02-09T05:08:12.066Z,2.28
2023-02-09T05:10:41.957Z,1.03
2023-02-09T05:13:11.285Z,1.17
2023-02-09T05:15:40.518Z,0.80
2023-02-09T05:18:09.735Z,0.52
2023-02-09T05:20:39.341Z,3.10
2023-02-09T05:23:11.958Z,2.85
2023-02-09T05:28:10.998Z,0.88
2023-02-09T05:30:40.635Z,1.25
2023-02-09T05:33:11.224Z,2.33
2023-02-09T05:35:40.413Z,0.55
2023-02-09T05:38:11.702Z,3.03
2023-02-09T05:40:41.238Z,2.10
2023-02-09T05:43:10.668Z,3.55
2023-02-09T05:45:40.027Z,4.85
2023-02-09T05:48:09.364Z,0.32
2023-02-09T05:50:40.004Z,3.92
2023-02-09T05:53:10.895Z,5.60
2023-02-09T05:55:43.776Z,4.47
2023-02-09T05:58:13.139Z,4.53
2023-02-09T06:00:43.178Z,0.35
2023-02-09T06:03:12.691Z,0.77
2023-02-09T06:05:42.163Z,0.88
2023-02-09T06:08:12.927Z,1.52
2023-02-09T06:10:42.191Z,2.58
2023-02-09T06:13:11.718Z,4.53
2023-02-09T06:15:44.144Z,0.82
2023-02-09T06:20:43.087Z,3.08
2023-02-09T06:23:13.978Z,0.70
2023-02-09T06:25:44.017Z,1.15
2023-02-09T06:28:13.271Z,2.65
2023-02-09T06:30:42.819Z,0.88
2023-02-09T06:33:11.899Z,1.23
2023-02-09T06:35:41.308Z,1.48
2023-02-09T06:38:10.769Z,1.33
2023-02-09T06:40:41.529Z,0.52
2023-02-09T06:43:10.827Z,0.88
2023-02-09T06:45:41.379Z,2.80
2023-02-09T06:48:11.534Z,2.60
2023-02-09T06:50:41.208Z,1.63
2023-02-09T06:53:10.648Z,0.90
2023-02-09T06:55:41.468Z,2.42
2023-02-09T06:58:11.896Z,1.05
2023-02-09T07:00:41.222Z,0.73
2023-02-09T07:03:11.515Z,0.60
2023-02-09T07:05:41.516Z,1.80
2023-02-09T07:08:10.813Z,0.47
2023-02-09T07:10:42.500Z,1.58
2023-02-09T07:13:13.474Z,0.60
2023-02-09T07:15:44.307Z,1.20
2023-02-09T07:18:13.799Z,1.63
2023-02-09T07:20:43.882Z,1.90
2023-02-09T07:23:13.185Z,1.67
2023-02-09T07:25:43.886Z,3.38
2023-02-09T07:28:13.239Z,2.65
2023-02-09T07:30:42.605Z,1.33
2023-02-09T07:33:12.649Z,0.57
2023-02-09T07:35:42.803Z,0.90
2023-02-09T07:38:12.352Z,1.15
2023-02-09T07:40:47.011Z,1.88
2023-02-09T07:43:17.130Z,1.15
2023-02-09T07:45:46.813Z,0.57
2023-02-09T07:48:16.360Z,1.38
2023-02-09T07:50:50.765Z,1.15
2023-02-09T07:53:20.215Z,0.65
2023-02-09T07:55:50.830Z,0.30
2023-02-09T07:58:21.360Z,1.85
2023-02-09T08:00:51.689Z,1.10
2023-02-09T08:03:24.385Z,0.63
2023-02-09T08:06:00.327Z,0.70
2023-02-09T08:08:38.836Z,1.20
2023-02-09T08:11:10.490Z,0.40
2023-02-09T08:13:41.953Z,0.90
2023-02-09T08:16:15.021Z,1.75
2023-02-09T08:18:49.173Z,0.43
2023-02-09T08:21:20.536Z,0.73
2023-02-09T08:23:54.793Z,0.50
2023-02-09T08:28:55.052Z,1.30
2023-02-09T08:31:24.476Z,0.50
2023-02-09T08:33:54.573Z,0.65
2023-02-09T08:36:24.565Z,0.25
2023-02-09T08:38:54.467Z,1.02
2023-02-09T08:41:25.336Z,1.05
2023-02-09T08:43:54.601Z,0.93
2023-02-09T08:46:24.222Z,2.05
2023-02-09T08:48:54.464Z,1.00
2023-02-09T08:51:24.381Z,0.40
2023-02-09T08:53:53.762Z,0.77
2023-02-09T08:56:25.279Z,0.50
2023-02-09T08:58:54.488Z,1.38
2023-02-09T09:01:24.359Z,1.48
2023-02-09T09:03:53.819Z,1.50
2023-02-09T09:06:23.735Z,1.27
2023-02-09T09:08:53.460Z,1.05
2023-02-09T09:11:22.861Z,1.05
2023-02-09T09:13:53.706Z,1.58
2023-02-09T09:16:25.011Z,0.60
2023-02-09T09:18:54.233Z,1.20
2023-02-09T09:21:23.407Z,0.73
2023-02-09T09:23:53.211Z,0.82
2023-02-09T09:26:22.916Z,0.43
2023-02-09T09:28:54.211Z,0.98
2023-02-09T09:31:24.316Z,0.20
2023-02-09T09:33:53.574Z,0.40
2023-02-09T09:36:23.181Z,0.30
2023-02-09T09:38:54.160Z,0.38
2023-02-09T09:41:30.181Z,0.85
2023-02-09T09:44:05.737Z,0.15
2023-02-09T09:46:38.233Z,0.77
2023-02-09T09:49:08.532Z,1.55
2023-02-09T09:51:44.732Z,0.32
2023-02-09T09:54:17.894Z,0.77
2023-02-09T09:56:47.305Z,0.30
2023-02-09T09:59:23.367Z,0.20
2023-02-09T10:01:55.075Z,0.40
2023-02-09T10:04:24.557Z,0.10
2023-02-09T10:07:00.699Z,0.30
2023-02-09T10:09:42.648Z,0.60
2023-02-09T10:12:24.644Z,0.50
2023-02-09T10:14:55.341Z,0.55
2023-02-09T10:17:25.244Z,0.77
2023-02-09T10:20:06.036Z,0.45
2023-02-09T10:22:35.990Z,0.95
2023-02-09T10:25:26.401Z,1.15
2023-02-09T10:27:56.916Z,1.23
2023-02-09T10:30:30.901Z,1.30
2023-02-09T10:33:02.116Z,0.20
2023-02-09T10:35:47.635Z,0.85
2023-02-09T10:38:19.971Z,2.08
2023-02-09T10:40:50.820Z,0.10
2023-02-09T10:43:27.500Z,0.88
2023-02-09T10:46:01.768Z,0.70
2023-02-09T10:48:42.319Z,1.48
2023-02-09T10:51:16.858Z,0.55
2023-02-09T10:54:02.803Z,0.13
2023-02-09T10:56:45.024Z,0.20
2023-02-09T10:59:19.057Z,0.45
2023-02-09T11:01:58.524Z,0.25
2023-02-09T11:04:31.603Z,0.40
2023-02-09T11:09:34.946Z,0.30
2023-02-09T11:14:33.655Z,1.17
2023-02-09T11:17:17.872Z,0.40
2023-02-09T11:20:12.298Z,0.20
2023-02-09T11:23:00.931Z,0.68
2023-02-09T11:25:34.595Z,0.40
2023-02-09T11:28:25.234Z,0.50
2023-02-09T11:31:22.239Z,0.45
2023-02-09T11:34:02.249Z,0.38
2023-02-09T11:36:47.328Z,0.40
2023-02-09T11:39:23.502Z,0.73
2023-02-09T11:42:18.291Z,0.30
2023-02-09T11:44:55.300Z,0.63
2023-02-09T11:47:30.779Z,1.75
2023-02-09T11:50:07.779Z,0.65
2023-02-09T11:52:42.022Z,0.22
2023-02-09T11:55:29.981Z,0.88
2023-02-09T11:58:10.726Z,0.28
2023-02-09T12:00:57.729Z,0.30
2023-02-09T12:03:31.135Z,0.80
2023-02-09T12:06:03.064Z,0.82
2023-02-09T12:08:48.189Z,0.15
2023-02-09T12:11:30.302Z,0.65
2023-02-09T12:14:17.668Z,0.57
2023-02-09T12:16:56.430Z,0.20
2023-02-09T12:19:33.713Z,0.47
2023-02-09T12:22:36.325Z,0.47
2023-02-09T12:25:19.034Z,0.50
2023-02-09T12:28:11.294Z,0.30
2023-02-09T12:31:04.185Z,0.10
2023-02-09T12:33:36.151Z,0.20
2023-02-09T12:36:25.749Z,0.15
2023-02-09T12:39:05.563Z,0.68
2023-02-09T12:42:08.434Z,0.82
2023-02-09T12:44:40.804Z,0.60
2023-02-09T12:47:41.912Z,0.30
2023-02-09T12:50:32.608Z,0.20
2023-02-09T12:53:44.230Z,0.38
2023-02-09T12:56:33.499Z,0.60
2023-02-09T12:59:20.956Z,0.80
2023-02-09T13:02:18.404Z,0.68
2023-02-09T13:05:01.419Z,0.40
2023-02-09T13:07:50.695Z,0.45
2023-02-09T13:10:29.360Z,0.60
2023-02-09T13:13:07.242Z,0.22
2023-02-09T13:15:53.592Z,0.80
2023-02-09T13:18:30.141Z,0.70
2023-02-09T13:21:17.014Z,0.30
2023-02-09T13:24:01.958Z,0.77
2023-02-09T13:26:34.256Z,0.68
2023-02-09T13:29:20.833Z,0.95
2023-02-09T13:32:03.303Z,0.60
2023-02-09T13:34:37.287Z,0.90
2023-02-09T13:37:25.967Z,0.40
2023-02-09T13:40:01.652Z,0.25
2023-02-09T13:42:37.923Z,0.50
2023-02-09T13:45:19.747Z,0.38
2023-02-09T13:47:49.458Z,0.98
2023-02-09T13:50:20.326Z,0.77
2023-02-09T13:52:54.722Z,1.17
2023-02-09T13:55:29.108Z,0.45
2023-02-09T13:58:02.108Z,1.10
2023-02-09T14:03:12.586Z,0.65
2023-02-09T14:05:45.829Z,0.68
2023-02-09T14:11:41.060Z,1.17
2023-02-09T14:14:16.273Z,0.47
2023-02-09T14:16:53.333Z,0.68
2023-02-09T14:19:28.465Z,0.10
2023-02-09T14:21:57.942Z,0.55
2023-02-09T14:24:29.792Z,0.95
2023-02-09T14:27:05.070Z,0.82
2023-02-09T14:29:37.585Z,0.63
2023-02-09T14:32:32.320Z,0.90
2023-02-09T14:35:18.223Z,0.17
2023-02-09T14:37:50.692Z,0.65
2023-02-09T14:43:04.337Z,1.15
2023-02-09T14:45:40.073Z,0.28
2023-02-09T14:48:20.215Z,0.98
2023-02-09T14:50:50.912Z,0.82
2023-02-09T14:53:20.711Z,0.88
2023-02-09T14:55:51.495Z,0.85
2023-02-09T14:58:27.751Z,0.82
2023-02-09T15:00:59.097Z,1.45
2023-02-09T15:03:28.710Z,1.65
2023-02-09T15:06:00.806Z,2.47
2023-02-09T15:08:33.564Z,3.47
2023-02-09T15:11:26.756Z,2.10
2023-02-09T15:14:04.280Z,0.30
2023-02-09T15:16:34.454Z,0.65
2023-02-09T15:19:05.702Z,1.00
2023-02-09T15:21:35.592Z,1.15
2023-02-09T15:24:04.777Z,0.52
2023-02-09T15:26:38.174Z,0.40
2023-02-09T15:29:13.500Z,0.85
2023-02-09T15:31:43.155Z,0.20
2023-02-09T15:34:14.709Z,2.30
2023-02-09T15:36:45.192Z,0.77
2023-02-09T15:39:21.044Z,1.65
2023-02-09T15:42:09.247Z,1.70
2023-02-09T15:44:55.971Z,0.63
2023-02-09T15:47:42.561Z,1.00
2023-02-09T15:50:11.760Z,0.95
2023-02-09T15:52:40.828Z,2.08
2023-02-09T15:55:13.376Z,0.47
2023-02-09T15:57:45.394Z,0.50
2023-02-09T16:00:19.940Z,0.47
2023-02-09T16:02:51.291Z,0.47
2023-02-09T16:05:21.109Z,1.85
2023-02-09T16:07:52.108Z,1.65
2023-02-09T16:10:25.494Z,0.35
2023-02-09T16:12:57.271Z,2.63
2023-02-09T16:15:28.198Z,0.70
2023-02-09T16:17:57.936Z,1.63
2023-02-09T16:20:27.323Z,1.67
2023-02-09T16:23:11.703Z,0.95
2023-02-09T16:25:49.108Z,1.08
2023-02-09T16:28:21.090Z,1.63
2023-02-09T16:30:52.718Z,1.07
2023-02-09T16:33:23.810Z,0.30
2023-02-09T16:35:57.069Z,2.55
2023-02-09T16:38:27.679Z,0.60
2023-02-09T16:40:57.604Z,0.22
2023-02-09T16:43:28.908Z,1.70
2023-02-09T16:46:03.600Z,1.10
2023-02-09T16:48:35.929Z,3.30
2023-02-09T16:51:06.050Z,2.30
2023-02-09T16:53:39.705Z,1.65
2023-02-09T16:56:10.454Z,1.45
2023-02-09T16:58:41.228Z,1.05
2023-02-09T17:01:17.097Z,0.65
2023-02-09T17:03:49.653Z,0.40
2023-02-09T17:06:20.369Z,1.38
2023-02-09T17:08:50.190Z,0.63
2023-02-09T17:11:21.032Z,1.13
2023-02-09T17:13:51.886Z,0.52
2023-02-09T17:16:24.804Z,1.55
2023-02-09T17:18:56.743Z,1.30
2023-02-09T17:21:28.811Z,1.55
2023-02-09T17:23:58.824Z,0.70
2023-02-09T17:26:28.404Z,0.70
2023-02-09T17:28:58.887Z,1.20
2023-02-09T17:31:43.826Z,0.10
2023-02-09T17:34:20.793Z,0.30
2023-02-09T17:36:50.009Z,0.40
2023-02-09T17:39:21.311Z,0.82
2023-02-09T17:41:50.848Z,1.02
2023-02-09T17:44:43.393Z,1.98
2023-02-09T17:47:17.724Z,0.88
2023-02-09T17:49:47.762Z,3.00
2023-02-09T17:52:18.669Z,1.85
2023-02-09T17:54:49.557Z,1.63
2023-02-09T17:57:21.242Z,0.75
2023-02-09T17:59:51.941Z,1.88
2023-02-09T18:02:21.487Z,0.98
2023-02-09T18:04:50.798Z,0.98
2023-02-09T18:07:20.702Z,1.48
2023-02-09T18:09:50.055Z,0.47
2023-02-09T18:12:21.871Z,0.82
2023-02-09T18:14:52.444Z,1.00
2023-02-09T18:17:21.853Z,0.40
2023-02-09T18:19:51.048Z,0.85
2023-02-09T18:22:20.408Z,1.00
2023-02-09T18:24:51.473Z,0.47
2023-02-09T18:27:23.328Z,3.03
2023-02-09T18:29:54.030Z,1.83
2023-02-09T18:32:24.196Z,2.30
2023-02-09T18:34:54.072Z,2.53
2023-02-09T18:37:23.921Z,0.65
2023-02-09T18:39:52.945Z,2.67
2023-02-09T18:42:22.088Z,2.63
2023-02-09T18:44:51.137Z,9.60
2023-02-09T18:47:21.984Z,5.90
2023-02-09T18:49:51.830Z,5.45
2023-02-09T18:52:24.752Z,5.50
2023-02-09T18:57:22.734Z,3.80
2023-02-09T18:59:52.151Z,9.00
2023-02-09T19:02:23.792Z,10.23
2023-02-09T19:04:53.104Z,5.55
2023-02-09T19:07:22.708Z,8.60
2023-02-09T19:09:52.276Z,5.78
2023-02-09T19:12:21.651Z,6.57
2023-02-09T19:14:52.598Z,5.22
2023-02-09T19:17:23.920Z,7.25
2023-02-09T19:19:53.627Z,9.65
2023-02-09T19:22:23.424Z,8.25
2023-02-09T19:24:56.310Z,11.18
2023-02-09T19:29:56.880Z,11.85
2023-02-09T19:32:28.350Z,12.88
2023-02-09T19:34:57.488Z,10.55
2023-02-09T19:37:26.461Z,9.45
2023-02-09T19:40:05.432Z,7.18
2023-02-09T19:42:34.889Z,5.25
2023-02-09T19:45:04.206Z,5.93
2023-02-09T19:47:35.190Z,4.70
2023-02-09T19:50:05.271Z,3.90
2023-02-09T19:52:37.549Z,3.60
2023-02-09T19:55:08.318Z,3.80
2023-02-09T19:57:37.583Z,5.05
2023-02-09T20:00:07.420Z,3.65
2023-02-09T20:02:39.109Z,4.05
2023-02-09T20:05:09.304Z,3.53
2023-02-09T20:07:39.986Z,5.97
2023-02-09T20:10:09.708Z,3.60
2023-02-09T20:12:38.875Z,1.67
2023-02-09T20:15:09.054Z,3.20
2023-02-09T20:17:39.628Z,4.82
2023-02-09T20:20:10.806Z,3.80
2023-02-09T20:22:39.963Z,3.55
2023-02-09T20:25:10.140Z,2.30
2023-02-09T20:27:39.168Z,2.30
2023-02-09T20:30:11.048Z,4.22
2023-02-09T20:32:41.685Z,3.55
2023-02-09T20:35:13.063Z,2.10
2023-02-09T20:37:42.422Z,1.70
2023-02-09T20:40:13.915Z,1.50
2023-02-09T20:43:02.321Z,2.08
2023-02-09T20:45:48.710Z,2.45
2023-02-09T20:48:19.852Z,3.60
2023-02-09T20:50:49.399Z,2.45
2023-02-09T20:53:21.221Z,1.45
2023-02-09T20:55:50.701Z,0.90
2023-02-09T20:58:20.357Z,3.28
2023-02-09T21:00:51.827Z,1.42
2023-02-09T21:03:22.588Z,5.00
2023-02-09T21:05:52.262Z,3.38
2023-02-09T21:08:22.762Z,3.80
2023-02-09T21:10:57.147Z,8.40
2023-02-09T21:13:26.357Z,3.45
2023-02-09T21:15:55.577Z,0.80
2023-02-09T21:18:27.990Z,3.53
2023-02-09T21:20:59.699Z,1.45
2023-02-09T21:23:30.501Z,4.13
2023-02-09T21:26:03.850Z,3.03
2023-02-09T21:28:33.564Z,5.95
2023-02-09T21:31:03.519Z,8.15
2023-02-09T21:33:37.395Z,8.57
2023-02-09T21:36:07.363Z,6.13
2023-02-09T21:38:41.882Z,4.85
2023-02-09T21:41:33.131Z,3.22
2023-02-09T21:44:03.130Z,7.90
2023-02-09T21:46:32.387Z,2.35
2023-02-09T21:49:02.904Z,5.38
2023-02-09T21:51:32.114Z,5.60
2023-02-09T21:54:01.194Z,3.92
2023-02-09T21:56:30.596Z,3.53
2023-02-09T21:58:59.596Z,2.55
2023-02-09T22:01:32.051Z,4.95
2023-02-09T22:04:03.010Z,8.02
2023-02-09T22:06:32.523Z,2.90
2023-02-09T22:09:03.839Z,6.43
2023-02-09T22:11:33.996Z,16.92
2023-02-09T22:14:03.136Z,7.53
2023-02-09T22:16:32.593Z,1.45
2023-02-09T22:19:03.149Z,4.53
2023-02-09T22:21:32.360Z,2.75
2023-02-09T22:24:01.474Z,2.67
2023-02-09T22:26:31.297Z,2.60
2023-02-09T22:29:00.943Z,2.92
2023-02-09T22:31:32.272Z,0.90
2023-02-09T22:34:03.892Z,2.00
2023-02-09T22:36:32.990Z,6.25
2023-02-09T22:39:02.932Z,1.73
2023-02-09T22:41:32.405Z,3.45
2023-02-09T22:44:03.140Z,1.60
2023-02-09T22:46:34.598Z,2.25
2023-02-09T22:49:08.056Z,1.08
2023-02-09T22:51:38.097Z,1.67
2023-02-09T22:54:08.181Z,1.42
2023-02-09T22:56:37.110Z,1.60
2023-02-09T22:59:06.729Z,1.15
2023-02-09T23:01:35.961Z,2.22
2023-02-09T23:04:06.756Z,0.77
2023-02-09T23:06:36.496Z,2.42
2023-02-09T23:09:09.548Z,0.50
2023-02-09T23:11:38.791Z,1.42
2023-02-09T23:14:10.653Z,0.30
2023-02-09T23:16:41.783Z,1.25
2023-02-09T23:19:14.156Z,0.95
2023-02-09T23:21:45.471Z,0.52
2023-02-09T23:24:15.658Z,2.10
2023-02-09T23:26:44.940Z,0.30
2023-02-09T23:29:16.490Z,0.85
2023-02-09T23:31:46.573Z,2.53
2023-02-09T23:34:20.134Z,1.73
2023-02-09T23:36:50.105Z,1.00
2023-02-09T23:39:22.528Z,0.43
2023-02-09T23:41:52.913Z,3.83
2023-02-09T23:44:22.088Z,0.20
2023-02-09T23:46:51.050Z,1.42
2023-02-09T23:49:22.900Z,0.30
2023-02-09T23:51:52.023Z,0.87
2023-02-09T23:54:21.833Z,0.80
2023-02-09T23:56:52.608Z,0.65
2023-02-09T23:59:21.652Z,1.95
